Time;durP1;ratioP1;P1;durP2;ratioP2;P2;SDS_P1;SDS_P2;PMS_P1;PMS_P2;Temp;Humidity;BMP_temperature;BMP_pressure;BME280_temperature;BME280_humidity;BME280_pressure;Samples;Min_cycle;Max_cycle;Signal;HPM_P1;HPM_P2
2022/05/25 00:15:21;;;;;;;1.93;0.90;;;18.40;66.30;;;19.04;44.02;98355.78;5508454;23;98935;-78
2022/05/25 00:21:30;;;;;;;1.07;0.93;;;18.50;66.50;;;19.03;44.14;98351.38;4922197;28;125460;-84
2022/05/25 00:27:39;;;;;;;0.80;0.77;;;17.40;65.80;;;18.94;44.54;98352.47;4922450;28;115255;-78
2022/05/25 00:41:32;;;;;;;1.27;0.90;;;18.30;67.10;;;18.81;44.74;98365.09;5866734;23;99074;-89
2022/05/25 00:47:45;;;;;;;1.00;0.90;;;18.10;67.00;;;18.74;44.64;98365.78;4921848;28;124765;-78
2022/05/25 00:54:06;;;;;;;1.27;0.80;;;18.30;67.40;;;18.62;44.99;98376.34;4922219;28;114920;-78
2022/05/25 01:00:25;;;;;;;3.00;1.00;;;18.00;67.10;;;18.51;45.02;98374.22;4921841;28;124778;-80
2022/05/25 01:06:52;;;;;;;1.10;0.90;;;18.00;67.10;;;18.44;44.89;98385.28;4922113;28;114943;-79
2022/05/25 01:13:49;;;;;;;1.03;0.87;;;18.00;67.20;;;18.28;45.13;98384.63;4922834;28;124688;-77
2022/05/25 01:20:52;;;;;;;1.00;0.90;;;17.00;66.40;;;18.21;45.12;98393.69;4925318;28;114959;-76
2022/05/25 01:27:14;;;;;;;1.00;0.90;;;17.60;67.10;;;18.19;45.15;98396.06;4924939;28;124675;-77
2022/05/25 05:00:05;;;;;;;1.00;0.90;;;17.10;66.70;;;17.62;44.61;98571.81;5615708;23;99095;-77
2022/05/25 05:06:14;;;;;;;1.33;0.87;;;17.00;66.60;;;17.60;44.61;98574.16;4864075;29;124612;-78
2022/05/25 05:22:47;;;;;;;1.00;0.90;;;17.10;67.00;;;17.77;44.54;98600.06;5787262;23;99169;-84
2022/05/25 05:36:54;;;;;;;1.33;1.23;;;17.20;66.80;;;17.80;44.55;98604.94;5638771;23;98330;-92
2022/05/25 05:43:23;;;;;;;1.67;0.80;;;17.20;66.70;;;17.79;44.50;98606.94;4901922;28;115706;-84
2022/05/25 05:46:29;;;;;;;1.00;0.87;;;17.20;66.70;;;17.78;44.56;98616.44;4884288;28;117352;-85
2022/05/25 05:48:55;;;;;;;1.57;0.97;;;16.40;65.90;;;17.80;44.34;98619.72;4891027;28;123667;-92
2022/05/25 05:55:05;;;;;;;2.90;0.90;;;17.30;66.60;;;17.81;44.48;98609.34;4921399;28;115273;-78
2022/05/25 06:01:14;;;;;;;1.33;0.90;;;17.30;66.70;;;17.96;44.45;98630.84;4924338;28;125097;-78
2022/05/25 06:07:23;;;;;;;1.27;0.90;;;17.40;66.70;;;18.13;44.11;98629.59;4924134;28;115284;-86
2022/05/25 06:13:31;;;;;;;1.30;0.90;;;17.60;66.40;;;18.14;44.11;98630.44;4922402;28;125066;-86
2022/05/25 06:19:27;;;;;;;2.23;1.20;;;17.60;66.30;;;18.20;44.09;98642.94;4907840;28;114854;-94
2022/05/25 06:22:20;;;;;;;1.00;0.90;;;17.70;66.40;;;18.23;43.91;98645.81;4904258;28;112299;-95
2022/05/25 06:24:50;;;;;;;1.63;0.93;;;17.70;66.20;;;18.25;43.72;98649.06;4911850;28;123715;-94
2022/05/25 06:27:21;;;;;;;2.40;0.90;;;17.70;66.20;;;18.24;43.88;98655.00;4892805;28;123224;-93
2022/05/25 06:29:49;;;;;;;1.00;0.90;;;17.70;65.90;;;18.22;43.70;98649.00;4879005;28;114515;-93
2022/05/25 06:32:20;;;;;;;1.10;1.00;;;17.70;65.90;;;18.24;43.83;98660.59;4893189;28;113731;-94
2022/05/25 06:34:47;;;;;;;1.40;1.10;;;17.70;65.90;;;18.28;43.73;98661.50;4880385;28;123962;-93
2022/05/25 06:37:22;;;;;;;2.07;0.97;;;17.80;66.00;;;18.31;43.77;98660.75;4897759;28;122937;-93
2022/05/25 06:40:10;;;;;;;1.57;1.10;;;17.80;66.10;;;18.25;43.72;98665.84;4878131;28;115002;-93
2022/05/25 06:42:41;;;;;;;1.30;0.90;;;17.80;65.90;;;18.23;43.94;98672.97;4873470;28;112796;-92
2022/05/25 06:45:10;;;;;;;1.50;1.13;;;17.70;65.90;;;18.25;43.81;98673.41;4887310;28;124543;-94
2022/05/25 06:47:39;;;;;;;1.60;1.10;;;17.80;66.10;;;18.26;43.87;98673.03;4897951;28;123502;-92
2022/05/25 06:51:02;;;;;;;2.03;1.10;;;17.70;66.00;;;18.26;43.92;98677.81;4882855;28;112696;-94
2022/05/25 06:53:30;;;;;;;2.07;1.17;;;17.80;66.10;;;18.26;43.95;98677.81;4896774;28;114429;-92
2022/05/25 06:55:56;;;;;;;1.30;1.00;;;17.80;66.20;;;18.25;44.00;98691.00;4876809;28;122243;-93
2022/05/25 06:58:23;;;;;;;1.20;0.90;;;17.80;66.20;;;18.23;43.97;98681.34;4892836;28;122581;-92
2022/05/25 07:01:09;;;;;;;1.20;1.10;;;17.80;66.10;;;18.24;44.09;98677.38;4895325;28;114096;-95
2022/05/25 07:03:55;;;;;;;1.63;1.43;;;17.80;66.20;;;18.31;44.22;98683.13;4888527;28;113770;-93
2022/05/25 07:06:24;;;;;;;2.20;1.00;;;17.80;66.30;;;18.39;44.19;98690.50;4883350;28;123540;-94
2022/05/25 07:08:52;;;;;;;1.10;1.00;;;17.80;66.50;;;18.47;43.95;98686.66;4867208;28;123393;-94
2022/05/25 07:11:39;;;;;;;1.33;0.97;;;17.90;66.60;;;18.62;43.79;98695.34;4888014;28;114209;-94
2022/05/25 07:14:07;;;;;;;1.03;0.93;;;18.00;66.60;;;18.77;43.67;98694.50;4868596;28;112536;-95
2022/05/25 07:16:34;;;;;;;3.37;1.00;;;18.10;66.60;;;18.90;43.27;98697.94;4880074;28;124119;-92
2022/05/25 07:19:59;;;;;;;1.20;1.10;;;18.20;66.40;;;19.00;43.23;98702.16;4876100;28;122978;-93
2022/05/25 07:22:27;;;;;;;1.20;1.00;;;18.30;66.10;;;19.10;42.99;98707.94;4869946;28;114626;-93
2022/05/25 07:24:56;;;;;;;1.20;0.80;;;18.40;66.00;;;19.17;42.72;98691.25;4867251;28;113848;-94
2022/05/25 07:27:22;;;;;;;6.40;1.30;;;18.50;65.60;;;19.25;42.55;98697.78;4873635;29;123914;-93
2022/05/25 07:29:49;;;;;;;1.40;0.90;;;18.60;65.50;;;19.35;42.41;98699.97;4880000;28;123339;-93
2022/05/25 07:33:13;;;;;;;1.20;1.10;;;18.60;65.30;;;19.43;42.11;98698.91;4876444;28;115232;-93
2022/05/25 07:36:02;;;;;;;1.30;0.90;;;18.70;64.60;;;19.43;41.58;98703.72;4863408;29;114150;-94
2022/05/25 07:38:51;;;;;;;3.50;1.30;;;18.70;63.90;;;19.41;41.19;98703.28;4890181;28;124350;-95
2022/05/25 07:41:19;;;;;;;1.67;1.10;;;18.80;63.10;;;19.45;41.40;98706.13;4890638;28;123475;-93
2022/05/25 07:44:29;;;;;;;1.57;1.00;;;18.80;63.50;;;19.52;41.42;98701.47;4844077;28;114056;-95
2022/05/25 07:46:56;;;;;;;1.10;0.90;;;18.90;63.70;;;19.64;41.51;98703.28;4873545;28;114418;-93
2022/05/25 07:50:04;;;;;;;1.40;1.00;;;18.90;63.80;;;19.78;41.60;98708.31;4882365;28;123996;-95
2022/05/25 07:52:34;;;;;;;1.90;1.60;;;19.10;64.00;;;19.96;41.23;98720.63;4857470;29;124148;-92
2022/05/25 07:55:59;;;;;;;2.30;0.93;;;19.00;64.00;;;20.10;41.14;98713.63;4840261;29;113800;-93
2022/05/25 07:58:39;;;;;;;1.40;1.00;;;19.40;63.80;;;20.17;40.80;98708.09;4869414;29;113462;-94
2022/05/25 08:01:16;;;;;;;1.70;1.10;;;19.40;63.20;;;20.19;40.83;98712.13;4817631;29;124763;-94
2022/05/25 08:06:33;;;;;;;1.10;1.00;;;19.60;62.70;;;20.21;40.54;98715.38;4785458;29;114181;-93
2022/05/25 08:09:00;;;;;;;1.23;0.90;;;19.60;62.20;;;20.27;40.53;98710.25;4788932;29;112662;-94
2022/05/25 08:11:34;;;;;;;1.10;1.00;;;19.70;62.10;;;20.30;40.08;98712.28;4776940;29;122119;-94
2022/05/25 08:14:00;;;;;;;1.23;1.00;;;19.70;61.70;;;20.34;39.76;98720.75;4777886;29;122700;-95
2022/05/25 08:16:27;;;;;;;1.23;0.93;;;19.70;61.50;;;20.37;39.71;98712.41;4760189;29;111935;-91
2022/05/25 08:18:55;;;;;;;1.97;1.20;;;19.80;61.50;;;20.39;39.52;98697.97;4759982;29;113099;-93
2022/05/25 08:21:22;;;;;;;1.43;1.10;;;19.80;60.90;;;20.42;39.23;98709.25;4786075;29;122061;-93
2022/05/25 08:23:49;;;;;;;1.20;1.03;;;19.80;60.40;;;20.45;39.20;98714.09;4781419;29;121879;-93
2022/05/25 08:26:16;;;;;;;1.00;0.90;;;19.90;60.10;;;20.49;38.86;98703.72;4781524;29;113378;-93
2022/05/25 08:28:43;;;;;;;1.73;1.20;;;19.90;59.80;;;20.56;38.63;98700.25;4810806;29;113974;-94
2022/05/25 08:31:11;;;;;;;1.10;0.90;;;20.00;59.30;;;20.62;38.32;98704.31;4796462;29;122602;-94
2022/05/25 08:33:39;;;;;;;0.90;0.80;;;20.00;59.10;;;20.68;38.46;98705.59;4811165;29;121644;-95
2022/05/25 08:36:05;;;;;;;1.47;1.00;;;20.10;59.20;;;20.78;38.23;98706.13;4821184;29;112075;-93
2022/05/25 08:38:32;;;;;;;0.97;0.87;;;20.10;59.10;;;20.86;38.19;98705.00;4839219;29;113292;-93
2022/05/25 08:41:00;;;;;;;1.30;0.93;;;20.20;59.20;;;20.90;38.14;98700.22;4860294;28;123599;-93
2022/05/25 08:43:45;;;;;;;1.30;1.10;;;20.30;59.00;;;20.90;37.96;98700.22;4839230;29;123971;-91
2022/05/25 08:46:17;;;;;;;1.03;0.93;;;20.30;59.00;;;20.91;38.28;98702.66;4843017;28;113569;-92
2022/05/25 08:48:44;;;;;;;1.43;1.10;;;20.30;58.80;;;20.95;38.28;98700.72;4836734;29;113921;-88
2022/05/25 08:51:19;;;;;;;1.07;0.93;;;20.40;58.80;;;20.96;37.99;98704.31;4869042;28;124500;-90
2022/05/25 08:53:49;;;;;;;2.30;1.10;;;20.40;58.70;;;20.95;37.89;98703.53;4847934;28;123917;-90
2022/05/25 08:56:47;;;;;;;2.83;0.90;;;20.40;58.60;;;20.97;38.19;98700.31;4828860;28;114383;-90
2022/05/25 08:59:35;;;;;;;1.57;1.00;;;20.40;58.70;;;20.99;38.31;98709.19;4846034;28;113583;-91
2022/05/25 09:02:16;;;;;;;2.87;1.00;;;20.50;58.90;;;20.99;38.14;98697.13;4859553;28;122860;-91
2022/05/25 09:05:13;;;;;;;1.83;0.93;;;20.40;58.60;;;20.98;37.94;98704.72;4850509;28;123835;-92
2022/05/25 09:08:09;;;;;;;1.43;1.10;;;20.50;58.50;;;20.98;38.06;98704.72;4855968;28;113834;-91
2022/05/25 09:10:44;;;;;;;4.53;1.33;;;20.50;58.40;;;20.91;37.71;98707.47;4839863;29;113662;-93
2022/05/25 09:13:32;;;;;;;1.63;1.00;;;20.40;57.90;;;20.87;37.29;98699.00;4854695;28;124598;-93
2022/05/25 09:16:15;;;;;;;1.47;0.90;;;20.40;57.30;;;20.85;37.36;98704.22;4858865;28;122055;-93
2022/05/25 09:18:59;;;;;;;0.90;0.77;;;20.40;57.10;;;20.81;37.32;98699.72;4860814;28;114609;-94
2022/05/25 09:22:09;;;;;;;0.90;0.80;;;20.30;56.90;;;20.82;37.56;98704.97;4894463;28;113123;-95
2022/05/25 09:25:18;;;;;;;1.00;0.80;;;20.30;56.80;;;20.90;37.21;98701.06;4870944;28;124261;-95
2022/05/25 09:28:12;;;;;;;1.20;1.00;;;20.40;57.10;;;21.04;37.28;98713.66;4852850;28;123051;-93
2022/05/25 09:30:42;;;;;;;1.10;1.00;;;20.50;57.00;;;21.06;36.28;98708.44;4850731;28;113432;-92
2022/05/25 09:33:40;;;;;;;1.27;0.90;;;20.50;56.20;;;21.04;36.49;98708.03;4830827;29;113091;-92
2022/05/25 09:36:20;;;;;;;2.60;1.03;;;20.50;56.10;;;21.02;36.24;98711.22;4852361;28;122554;-93
2022/05/25 09:39:23;;;;;;;1.00;0.90;;;20.50;55.60;;;20.97;36.58;98717.16;4827525;29;121964;-93
2022/05/25 09:42:01;;;;;;;1.73;0.93;;;20.50;55.50;;;21.01;36.40;98722.81;4850550;29;112577;-92
2022/05/25 09:44:52;;;;;;;1.20;0.90;;;20.50;55.80;;;21.01;36.17;98726.47;4847263;29;113220;-93
2022/05/25 09:47:41;;;;;;;1.60;1.20;;;20.50;55.30;;;21.01;36.41;98729.28;4863840;29;125844;-94
2022/05/25 09:50:17;;;;;;;0.90;0.80;;;20.50;55.40;;;21.03;36.30;98720.44;4861563;29;124135;-93
2022/05/25 09:52:52;;;;;;;1.70;1.10;;;20.50;55.60;;;21.04;36.07;98722.88;4837217;29;114528;-92
2022/05/25 09:55:37;;;;;;;1.50;1.30;;;20.50;55.00;;;21.09;36.19;98713.28;4857772;29;112035;-93
2022/05/25 09:58:10;;;;;;;2.03;1.20;;;20.60;55.30;;;21.19;36.48;98730.25;4841333;29;124242;-94
2022/05/25 10:00:36;;;;;;;1.10;0.80;;;20.60;55.50;;;21.26;36.15;98709.06;4845718;29;124316;-94
2022/05/25 10:03:27;;;;;;;1.30;0.80;;;20.70;55.60;;;21.30;35.71;98712.69;4844020;29;113529;-94
2022/05/25 10:06:15;;;;;;;1.40;0.90;;;20.70;55.00;;;21.26;35.48;98718.28;4867867;29;113516;-94
2022/05/25 10:08:42;;;;;;;1.90;1.10;;;20.70;54.50;;;21.24;35.18;98717.06;4856204;29;124068;-94
2022/05/25 10:11:29;;;;;;;1.70;1.10;;;20.70;53.90;;;21.21;35.70;98715.81;4829176;29;123714;-93
2022/05/25 10:14:32;;;;;;;2.03;1.00;;;20.70;53.80;;;21.17;35.04;98698.94;4854686;29;114898;-94
2022/05/25 10:17:15;;;;;;;1.77;1.30;;;20.70;53.20;;;21.24;35.27;98703.00;4861590;28;114971;-92
2022/05/25 10:19:53;;;;;;;1.70;1.10;;;20.70;53.40;;;21.33;35.20;98700.66;4844897;29;122462;-92
2022/05/25 10:22:44;;;;;;;1.37;0.87;;;20.80;53.30;;;21.43;34.87;98704.81;4825850;29;122992;-92
2022/05/25 10:25:28;;;;;;;1.07;0.80;;;20.90;53.40;;;21.55;34.89;98701.72;4853360;28;113656;-93
2022/05/25 10:27:58;;;;;;;1.47;1.03;;;21.00;53.80;;;21.62;34.65;98716.63;4857684;29;114319;-92
2022/05/25 10:37:05;;;;;;;1.13;1.03;;;21.10;52.80;;;21.55;34.48;98713.78;4838202;29;114882;-91
2022/05/25 10:39:53;;;;;;;1.73;1.10;;;21.10;52.30;;;21.52;34.61;98714.56;4816506;29;114431;-91
2022/05/25 10:42:26;;;;;;;1.77;0.93;;;21.10;52.40;;;21.52;34.53;98722.16;4837969;29;125351;-90
2022/05/25 10:45:07;;;;;;;2.13;1.03;;;21.10;52.30;;;21.49;34.29;98718.13;4834445;29;123719;-91
2022/05/25 10:47:57;;;;;;;2.17;1.17;;;21.10;52.10;;;21.49;34.25;98715.31;4839064;29;114168;-91
2022/05/25 10:50:58;;;;;;;2.17;1.07;;;21.00;52.10;;;21.47;34.12;98709.28;4853720;29;114225;-93
2022/05/25 10:57:22;;;;;;;2.00;0.90;;;21.00;51.60;;;21.43;33.95;98700.00;4853942;29;124612;-91
2022/05/25 11:00:03;;;;;;;2.27;0.97;;;21.00;51.60;;;21.50;34.23;98700.06;4840964;29;114654;-90
2022/05/25 11:03:09;;;;;;;1.30;1.10;;;21.00;51.50;;;21.62;33.92;98708.19;4846769;29;114356;-87
2022/05/25 11:05:45;;;;;;;1.30;1.03;;;21.10;51.80;;;21.76;34.09;98709.50;4836943;29;124768;-91
2022/05/25 11:08:45;;;;;;;1.00;0.90;;;21.20;51.80;;;21.83;33.58;98709.56;4847835;28;124125;-90
2022/05/25 11:11:53;;;;;;;1.53;1.03;;;21.20;51.60;;;21.84;33.76;98697.09;4843456;29;114958;-94
2022/05/25 11:14:36;;;;;;;0.90;0.80;;;21.30;51.40;;;21.88;33.78;98702.78;4838793;29;114479;-92
2022/05/25 11:17:40;;;;;;;1.13;0.80;;;21.30;51.50;;;21.95;33.87;98714.91;4852438;29;123858;-92
2022/05/25 11:20:29;;;;;;;1.43;1.10;;;21.40;51.60;;;21.98;33.75;98702.84;4844725;29;123878;-91
2022/05/25 11:23:37;;;;;;;2.77;0.97;;;21.40;51.20;;;21.94;33.83;98706.84;4844301;29;114450;-93
2022/05/25 11:26:41;;;;;;;1.00;0.80;;;21.40;51.00;;;21.94;33.70;98710.44;4817545;29;113721;-90
2022/05/25 11:29:41;;;;;;;3.57;1.10;;;21.50;51.50;;;21.98;33.79;98711.31;4849133;29;124022;-90
2022/05/25 11:32:50;;;;;;;1.57;1.03;;;21.50;51.50;;;21.99;33.95;98714.91;4835290;29;123738;-90
2022/05/25 11:35:52;;;;;;;2.10;0.90;;;21.50;51.30;;;22.03;33.96;98704.47;4835670;29;114314;-91
2022/05/25 11:38:48;;;;;;;1.00;0.90;;;21.50;51.50;;;22.06;33.34;98709.34;4852877;29;113228;-92
2022/05/25 11:41:45;;;;;;;2.90;0.90;;;21.60;50.90;;;22.12;33.62;98702.13;4865370;28;124046;-90
2022/05/25 11:44:45;;;;;;;1.20;1.10;;;21.60;51.20;;;22.20;33.34;98688.94;4872658;28;124255;-90
2022/05/25 11:47:42;;;;;;;1.80;1.30;;;21.70;51.30;;;22.28;33.37;98694.22;4857663;28;113811;-91
2022/05/25 11:50:27;;;;;;;2.10;1.20;;;21.70;50.80;;;22.40;33.34;98698.69;4873648;28;113725;-91
2022/05/25 11:53:30;;;;;;;1.20;0.80;;;21.80;50.90;;;22.52;32.85;98702.41;4858482;28;124160;-92
2022/05/25 11:56:14;;;;;;;1.00;0.80;;;21.90;50.90;;;22.66;33.11;98696.81;4822796;28;123865;-90
2022/05/25 11:59:10;;;;;;;1.47;0.90;;;22.00;50.90;;;22.84;32.71;98694.88;4853223;28;114317;-93
2022/05/25 12:01:40;;;;;;;2.03;1.00;;;22.20;50.50;;;22.89;32.31;98702.94;4856769;28;113251;-93
2022/05/25 12:04:40;;;;;;;1.17;0.87;;;22.20;50.80;;;22.93;32.33;98705.75;4867580;28;123043;-91
2022/05/25 12:07:33;;;;;;;0.97;0.83;;;22.30;50.10;;;23.00;32.69;98705.81;4856620;28;123869;-90
2022/05/25 12:10:43;;;;;;;0.90;0.80;;;22.40;50.20;;;23.11;31.82;98705.84;4855365;28;115806;-92
2022/05/25 12:13:38;;;;;;;1.73;1.10;;;22.50;49.10;;;23.22;31.76;98695.41;4837216;28;113674;-93
2022/05/25 12:16:08;;;;;;;1.40;0.90;;;22.60;49.20;;;23.29;31.72;98706.69;4860157;28;124223;-93
2022/05/25 12:19:05;;;;;;;1.10;0.90;;;22.70;49.20;;;23.34;31.79;98703.44;4839767;28;122576;-92
2022/05/25 12:22:02;;;;;;;1.10;1.00;;;22.80;48.90;;;23.36;31.33;98695.41;4868458;28;114623;-92
2022/05/25 12:24:40;;;;;;;1.10;0.83;;;22.80;48.40;;;23.42;31.11;98698.63;4841637;29;114465;-91
2022/05/25 12:27:16;;;;;;;0.93;0.80;;;22.90;48.00;;;23.43;31.00;98696.63;4840045;29;123653;-91
2022/05/25 12:30:03;;;;;;;1.83;1.20;;;22.90;47.60;;;23.43;31.23;98690.97;4836665;29;123047;-92
2022/05/25 12:32:30;;;;;;;1.10;0.90;;;23.00;47.70;;;23.52;31.20;98694.22;4857820;28;113171;-90
2022/05/25 12:34:57;;;;;;;2.53;1.00;;;23.00;47.90;;;23.67;31.19;98681.75;4854399;28;112986;-89
2022/05/25 12:37:30;;;;;;;1.83;1.07;;;23.10;48.00;;;23.86;30.64;98688.19;4867336;28;124088;-91
2022/05/25 12:39:59;;;;;;;1.83;0.97;;;23.20;47.50;;;24.03;30.44;98678.91;4867184;28;124329;-90
2022/05/25 12:42:26;;;;;;;2.00;1.10;;;23.40;47.90;;;24.21;30.15;98688.13;4865056;28;113824;-90
2022/05/25 12:48:40;;;;;;;1.40;0.97;;;23.60;46.70;;;24.45;29.99;98680.84;4854774;28;124731;-90
2022/05/25 12:51:33;;;;;;;1.33;0.90;;;23.80;46.80;;;24.56;30.12;98692.09;4834005;29;123398;-87
2022/05/25 12:54:05;;;;;;;3.97;1.00;;;23.90;46.80;;;24.58;29.15;98683.19;4865890;28;114388;-92
2022/05/25 12:56:37;;;;;;;1.37;0.90;;;24.00;45.40;;;24.58;29.24;98678.38;4858716;28;113230;-91
2022/05/25 12:59:11;;;;;;;1.93;1.20;;;24.00;45.20;;;24.55;29.54;98684.81;4867517;28;124647;-88
2022/05/25 13:02:13;;;;;;;2.03;0.80;;;24.00;45.70;;;24.57;29.75;98684.41;4850067;28;123225;-89
2022/05/25 13:04:49;;;;;;;1.57;1.00;;;24.10;46.00;;;24.63;29.17;98685.59;4859629;28;115519;-87
2022/05/25 13:07:37;;;;;;;2.70;0.90;;;24.10;45.50;;;24.59;29.62;98671.50;4854496;28;114614;-91
2022/05/25 13:10:41;;;;;;;1.10;0.90;;;24.10;45.50;;;24.63;29.19;98680.75;4859405;28;124313;-89
2022/05/25 13:13:40;;;;;;;2.53;1.00;;;24.10;45.50;;;24.62;28.96;98676.31;4820704;28;124190;-91
2022/05/25 13:16:08;;;;;;;1.93;0.93;;;24.10;44.20;;;24.64;28.61;98671.06;4831785;28;114330;-92
2022/05/25 13:18:54;;;;;;;2.20;1.40;;;24.10;44.10;;;24.71;28.93;98672.25;4856044;28;112701;-89
2022/05/25 13:21:36;;;;;;;2.00;1.13;;;24.20;44.60;;;24.83;28.54;98654.84;4874072;28;124838;-90
2022/05/25 13:24:35;;;;;;;1.37;0.90;;;24.20;44.20;;;24.94;28.33;98660.44;4844780;28;123887;-91
2022/05/25 13:27:14;;;;;;;1.47;0.80;;;24.30;43.60;;;24.98;27.89;98655.56;4862960;28;113480;-89
2022/05/25 13:30:39;;;;;;;1.30;0.90;;;24.40;42.90;;;25.10;27.74;98664.34;4867805;28;114084;-89
2022/05/25 13:33:30;;;;;;;2.27;1.00;;;24.50;43.20;;;25.21;28.15;98669.97;4827898;29;124892;-90
2022/05/25 13:36:23;;;;;;;1.53;0.90;;;24.60;43.00;;;25.21;27.71;98675.63;4817719;29;124496;-87
2022/05/25 13:39:03;;;;;;;1.53;0.83;;;24.70;42.80;;;25.28;27.82;98669.94;4849258;28;114052;-89
2022/05/25 13:41:45;;;;;;;1.30;0.87;;;24.70;43.10;;;25.43;27.66;98670.63;4838866;28;114108;-90
2022/05/25 13:44:29;;;;;;;2.70;1.13;;;24.80;42.60;;;25.52;27.36;98662.47;4858616;28;124274;-90
2022/05/25 13:46:58;;;;;;;1.47;0.77;;;24.90;42.50;;;25.54;27.66;98665.66;4835559;28;123545;-88
2022/05/25 13:49:26;;;;;;;1.00;0.90;;;25.00;42.60;;;25.61;27.69;98669.69;4858097;28;114300;-87
2022/05/25 13:52:15;;;;;;;1.40;0.90;;;25.00;42.70;;;25.66;27.38;98655.09;4864641;28;114437;-89
2022/05/25 13:54:47;;;;;;;1.03;0.90;;;25.10;41.80;;;25.71;26.74;98651.78;4866103;28;124162;-86
2022/05/25 13:57:35;;;;;;;1.00;0.90;;;25.20;41.50;;;25.68;26.84;98649.78;4874385;28;123108;-90
2022/05/25 14:00:13;;;;;;;1.60;0.90;;;25.20;41.60;;;25.69;26.59;98651.41;4869388;28;114454;-88
2022/05/25 14:03:04;;;;;;;1.13;0.97;;;25.20;41.20;;;25.82;26.86;98668.66;4870950;28;114697;-89
2022/05/25 14:05:40;;;;;;;0.90;0.70;;;25.20;41.70;;;25.91;26.43;98658.50;4873657;28;124119;-89
2022/05/25 14:08:18;;;;;;;1.80;1.20;;;25.30;41.00;;;25.92;26.58;98667.78;4872207;28;122748;-86
2022/05/25 14:11:18;;;;;;;1.47;0.97;;;25.40;40.60;;;25.92;26.85;98660.09;4870482;28;114905;-90
2022/05/25 14:13:47;;;;;;;1.40;0.90;;;25.40;40.90;;;26.02;26.08;98654.78;4835404;28;112947;-89
2022/05/25 14:16:22;;;;;;;1.30;1.00;;;25.50;40.30;;;26.02;26.31;98654.78;4874891;28;124873;-92
2022/05/25 14:18:51;;;;;;;4.03;1.17;;;25.50;40.50;;;26.07;26.36;98654.31;4857281;28;122990;-88
2022/05/25 14:21:32;;;;;;;1.40;0.80;;;25.50;40.30;;;26.12;26.56;98651.81;4865684;28;113787;-90
2022/05/25 14:24:09;;;;;;;0.80;0.70;;;25.60;40.50;;;26.29;26.17;98661.34;4873184;28;114009;-86
2022/05/25 14:26:42;;;;;;;1.33;1.00;;;25.70;40.60;;;26.36;25.82;98651.97;4865541;28;125068;-88
2022/05/25 14:29:15;;;;;;;3.87;1.10;;;25.70;40.10;;;26.36;26.09;98658.44;4859777;28;123135;-90
2022/05/25 14:31:52;;;;;;;3.80;0.97;;;25.80;40.00;;;26.37;26.15;98648.69;4859776;28;114761;-88
2022/05/25 14:34:26;;;;;;;1.20;0.77;;;25.80;40.10;;;26.50;26.24;98653.81;4875662;28;114651;-85
2022/05/25 14:36:56;;;;;;;1.37;0.90;;;25.90;40.20;;;26.65;26.31;98653.25;4841767;29;124095;-87
2022/05/25 14:39:26;;;;;;;0.97;0.80;;;26.00;40.40;;;26.77;26.11;98632.03;4808705;29;124296;-89
2022/05/25 14:42:12;;;;;;;3.37;0.90;;;26.10;40.00;;;26.87;25.95;98642.41;4829811;29;113734;-88
2022/05/25 14:44:43;;;;;;;3.57;0.80;;;26.20;40.10;;;27.00;26.17;98639.00;4847055;29;114002;-93
2022/05/25 14:47:18;;;;;;;2.00;0.90;;;26.30;40.50;;;27.07;25.64;98647.41;4846579;29;123657;-86
2022/05/25 14:50:22;;;;;;;2.07;1.07;;;26.50;39.90;;;27.05;25.87;98652.69;4839687;29;124079;-88
2022/05/25 14:53:06;;;;;;;1.07;0.83;;;26.50;39.50;;;27.16;25.83;98649.69;4811891;29;113258;-88
2022/05/25 14:55:32;;;;;;;1.27;0.90;;;26.60;39.60;;;27.18;25.67;98648.06;4836865;29;114951;-88
2022/05/25 14:58:15;;;;;;;1.20;1.00;;;26.60;39.10;;;27.19;24.93;98649.69;4835332;29;124145;-88
2022/05/25 15:01:04;;;;;;;1.20;0.80;;;26.70;38.40;;;27.15;25.09;98651.72;4852309;28;123281;-89
2022/05/25 15:03:35;;;;;;;1.40;1.00;;;26.70;38.30;;;27.15;25.13;98651.72;4852178;28;114426;-89
2022/05/25 15:06:02;;;;;;;1.87;0.83;;;26.70;38.40;;;27.12;24.56;98652.59;4823528;29;112270;-87
2022/05/25 15:08:33;;;;;;;2.80;0.80;;;26.70;37.70;;;27.06;24.84;98654.31;4834544;29;125176;-88
2022/05/25 15:11:32;;;;;;;1.30;1.10;;;26.60;38.00;;;27.11;25.22;98651.00;4837706;29;124283;-88
2022/05/25 15:20:21;;;;;;;1.43;1.20;;;26.70;38.20;;;27.29;24.59;98660.03;4853576;29;124511;-86
2022/05/25 15:22:58;;;;;;;1.23;0.80;;;26.70;37.80;;;27.19;24.62;98663.03;4850499;29;124030;-87
2022/05/25 15:25:41;;;;;;;1.03;0.83;;;26.70;37.80;;;27.03;25.40;98658.00;4832537;29;113710;-87
2022/05/25 15:28:35;;;;;;;1.17;0.90;;;26.70;38.10;;;26.98;25.15;98661.31;4839087;29;114569;-85
2022/05/25 15:31:12;;;;;;;1.00;0.87;;;26.60;37.80;;;27.00;25.67;98670.19;4845305;29;124214;-90
2022/05/25 15:33:38;;;;;;;1.40;0.80;;;26.60;38.30;;;27.09;25.87;98664.81;4852481;29;124596;-84
2022/05/25 15:36:20;;;;;;;1.37;0.90;;;26.60;38.60;;;27.20;25.26;98678.84;4853876;29;110734;-88
2022/05/25 15:38:53;;;;;;;1.30;0.80;;;26.70;38.50;;;27.19;25.40;98663.03;4844706;29;113455;-87
2022/05/25 15:41:24;;;;;;;1.23;0.90;;;26.60;38.40;;;27.16;25.19;98666.72;4866538;28;123308;-89
2022/05/25 15:43:52;;;;;;;2.00;0.90;;;26.70;37.80;;;27.11;25.07;98673.69;4868587;28;122031;-86
2022/05/25 15:46:20;;;;;;;1.27;0.90;;;26.70;38.20;;;27.06;25.26;98674.16;4840643;29;113346;-90
2022/05/25 15:48:51;;;;;;;1.57;1.00;;;26.60;38.00;;;27.06;25.46;98677.00;4846441;29;114470;-88
2022/05/25 15:51:26;;;;;;;1.20;0.90;;;26.60;38.30;;;27.13;25.63;98673.25;4842965;29;123877;-89
2022/05/25 15:53:53;;;;;;;1.50;0.90;;;26.70;38.60;;;27.22;24.91;98668.69;4847700;29;123438;-89
2022/05/25 15:56:19;;;;;;;2.87;1.00;;;26.70;37.90;;;27.22;25.07;98670.72;4850937;29;113415;-88
2022/05/25 15:58:46;;;;;;;2.80;0.90;;;26.70;37.40;;;27.32;24.90;98678.25;4864768;28;113782;-89
2022/05/25 16:01:21;;;;;;;1.20;0.80;;;26.70;38.20;;;27.44;25.16;98671.19;4871747;28;124063;-88
2022/05/25 16:03:55;;;;;;;1.77;0.80;;;26.80;38.20;;;27.47;24.94;98678.84;4847318;29;123183;-88
2022/05/25 16:06:23;;;;;;;3.33;1.10;;;26.90;37.70;;;27.48;24.96;98672.72;4834797;29;114712;-88
2022/05/25 16:11:43;;;;;;;2.70;1.20;;;27.00;37.90;;;27.50;25.08;98672.31;4843846;29;125248;-86
2022/05/25 16:14:11;;;;;;;0.90;0.70;;;27.00;37.90;;;27.54;25.09;98679.53;4844945;28;123844;-88
2022/05/25 16:16:38;;;;;;;1.40;1.00;;;27.00;37.90;;;27.47;25.17;98676.00;4874425;28;114662;-87
2022/05/25 16:19:05;;;;;;;1.37;1.00;;;27.00;37.70;;;27.36;25.04;98678.22;4866799;28;114283;-87
2022/05/25 16:21:32;;;;;;;1.07;0.80;;;27.00;37.80;;;27.29;25.06;98679.09;4835477;29;124566;-88
2022/05/25 16:23:59;;;;;;;2.07;0.97;;;26.90;37.90;;;27.23;25.54;98684.47;4852488;28;124365;-91
2022/05/25 16:26:26;;;;;;;1.30;1.00;;;26.90;38.10;;;27.15;25.74;98680.09;4848812;28;114314;-89
2022/05/25 16:28:54;;;;;;;1.50;1.00;;;26.80;38.10;;;27.06;25.70;98688.34;4850239;28;114192;-90
2022/05/25 16:31:24;;;;;;;1.30;0.80;;;26.70;37.70;;;26.98;25.61;98695.34;4855352;29;124094;-89
2022/05/25 16:33:55;;;;;;;3.70;0.93;;;26.70;38.00;;;26.83;25.93;98687.00;4837422;29;123051;-89
2022/05/25 16:36:23;;;;;;;1.50;0.90;;;26.60;38.00;;;26.67;26.08;98689.66;4835904;29;114837;-90
2022/05/25 16:38:52;;;;;;;1.00;0.90;;;26.40;38.10;;;26.60;26.33;98686.94;4859851;28;115490;-90
2022/05/25 16:41:21;;;;;;;1.10;0.87;;;26.30;38.40;;;26.52;25.86;98693.88;4867025;28;124059;-90
2022/05/25 16:43:47;;;;;;;2.87;1.03;;;26.30;38.60;;;26.47;26.37;98691.50;4853810;28;122915;-88
2022/05/25 16:46:14;;;;;;;2.40;0.77;;;26.20;38.70;;;26.48;26.59;98685.41;4857790;28;113620;-89
2022/05/25 16:48:41;;;;;;;2.23;1.13;;;26.10;38.90;;;26.49;25.97;98691.88;4853446;28;113975;-87
2022/05/25 16:51:08;;;;;;;1.67;0.90;;;26.10;38.50;;;26.50;26.16;98702.00;4867164;28;124250;-88
2022/05/25 16:53:34;;;;;;;1.40;0.90;;;26.00;38.50;;;26.53;26.22;98706.84;4856308;28;123999;-88